Time;durP1;ratioP1;P1;durP2;ratioP2;P2;SDS_P1;SDS_P2;PMS_P1;PMS_P2;Temp;Humidity;BMP_temperature;BMP_pressure;BME280_temperature;BME280_humidity;BME280_pressure;Samples;Min_cycle;Max_cycle;Signal;HPM_P1;HPM_P2
2022/09/25 00:01:02;;;;;;;6.70;5.37;;;;;;;13.93;55.21;94988.25;5110634;28;20185;-73
2022/09/25 00:03:30;;;;;;;7.57;5.97;;;;;;;13.91;55.33;94977.34;5110197;28;20197;-76
2022/09/25 00:06:04;;;;;;;10.10;6.43;;;;;;;13.90;55.29;94978.25;5092243;28;20193;-76
2022/09/25 00:08:31;;;;;;;8.93;6.13;;;;;;;13.76;55.26;94957.28;5110167;28;20237;-75
2022/09/25 00:10:58;;;;;;;11.47;6.20;;;;;;;13.69;55.59;94946.03;5110070;28;20193;-75
2022/09/25 00:13:25;;;;;;;6.33;5.73;;;;;;;13.83;55.41;94970.38;5110198;28;20241;-75
2022/09/25 00:15:54;;;;;;;7.13;5.60;;;;;;;13.78;55.71;94967.44;5110328;28;20196;-76
2022/09/25 00:21:04;;;;;;;6.53;5.40;;;;;;;13.77;55.86;94969.22;5093169;28;20263;-76
2022/09/25 00:23:32;;;;;;;7.27;5.73;;;;;;;13.75;55.71;94976.25;5110477;28;20192;-75
2022/09/25 00:25:59;;;;;;;6.10;5.03;;;;;;;13.71;55.82;94964.66;5110199;28;20186;-75
2022/09/25 00:28:28;;;;;;;8.97;5.80;;;;;;;13.63;55.97;94953.50;5109863;28;20301;-76
2022/09/25 00:30:55;;;;;;;8.30;6.00;;;;;;;13.45;55.98;94931.22;5110128;28;20181;-77
2022/09/25 00:33:22;;;;;;;8.23;5.77;;;;;;;13.68;56.13;94974.41;5110519;28;20184;-75
2022/09/25 00:35:49;;;;;;;8.50;5.93;;;;;;;13.59;56.26;94957.34;5110177;28;20192;-76
2022/09/25 00:38:17;;;;;;;7.63;5.13;;;;;;;13.55;56.19;94955.06;5110322;28;20193;-76
2022/09/25 00:40:44;;;;;;;7.60;5.80;;;;;;;13.36;56.22;94926.19;5111836;28;20189;-77
2022/09/25 00:43:14;;;;;;;11.53;5.80;;;;;;;13.59;56.56;94959.91;5113281;28;20193;-76
2022/09/25 00:45:41;;;;;;;7.10;5.63;;;;;;;13.55;56.47;94952.47;5114717;28;20224;-76
2022/09/25 00:48:14;;;;;;;10.43;6.23;;;;;;;13.54;56.40;94948.31;5113917;28;20219;-74
2022/09/25 00:50:49;;;;;;;6.97;5.60;;;;;;;13.51;56.42;94952.94;5109986;28;20189;-75
2022/09/25 00:53:22;;;;;;;5.80;5.10;;;;;;;13.50;56.40;94964.16;5109400;28;20215;-74
2022/09/25 00:55:49;;;;;;;7.27;5.80;;;;;;;13.48;56.57;94958.38;5110295;28;20194;-74
2022/09/25 00:58:21;;;;;;;6.40;5.23;;;;;;;13.40;56.59;94948.84;5109845;28;20185;-77
2022/09/25 01:00:48;;;;;;;7.07;5.20;;;;;;;13.44;56.31;94949.38;5109793;28;20645;-75
2022/09/25 01:03:16;;;;;;;5.47;4.70;;;;;;;13.39;56.56;94949.00;5109624;28;20556;-75
2022/09/25 01:05:45;;;;;;;7.30;5.37;;;;;;;13.40;56.80;94945.47;5109883;28;20195;-77
2022/09/25 01:08:15;;;;;;;6.37;5.33;;;;;;;13.38;56.84;94950.75;5111064;27;20240;-82
2022/09/25 01:10:44;;;;;;;6.17;5.07;;;;;;;13.36;56.83;94952.66;5115896;28;20200;-81
2022/09/25 01:13:12;;;;;;;6.87;5.40;;;;;;;13.35;56.86;94945.91;5115177;28;20558;-75
2022/09/25 01:15:45;;;;;;;6.57;5.10;;;;;;;13.20;57.00;94912.22;5114899;28;20540;-78
2022/09/25 01:18:24;;;;;;;7.73;5.47;;;;;;;13.32;56.84;94943.66;5116444;28;20189;-80
2022/09/25 01:21:06;;;;;;;5.57;4.87;;;;;;;13.29;56.96;94942.16;5116744;28;20195;-77
2022/09/25 01:24:04;;;;;;;7.43;5.03;;;;;;;13.24;57.01;94941.81;5128537;28;20195;-79
2022/09/25 01:26:54;;;;;;;5.80;4.67;;;;;;;13.23;57.09;94937.63;5071134;28;20206;-74
2022/09/25 01:29:28;;;;;;;6.20;5.20;;;;;;;13.20;57.24;94924.25;5054128;28;20701;-79
2022/09/25 01:32:02;;;;;;;5.43;4.63;;;;;;;13.19;57.10;94932.91;5051229;28;20195;-78
2022/09/25 01:34:38;;;;;;;5.37;4.60;;;;;;;13.17;57.25;94947.63;5050966;28;20237;-83
2022/09/25 01:37:13;;;;;;;5.50;4.80;;;;;;;13.16;56.99;94951.97;5050597;28;20773;-75
2022/09/25 01:39:45;;;;;;;5.40;4.90;;;;;;;13.13;57.40;94942.00;5050152;28;20194;-76
2022/09/25 01:42:18;;;;;;;6.10;5.13;;;;;;;13.09;57.39;94938.13;5050501;28;20203;-79
2022/09/25 01:44:55;;;;;;;5.53;4.93;;;;;;;13.11;57.62;94943.91;5050035;28;20272;-73
2022/09/25 01:47:28;;;;;;;7.67;4.40;;;;;;;13.08;57.49;94957.03;5049802;28;20605;-74
2022/09/25 01:49:59;;;;;;;6.67;4.93;;;;;;;13.06;57.70;94958.94;5049698;28;20198;-74
2022/09/25 01:52:32;;;;;;;5.10;4.60;;;;;;;13.04;57.69;94959.09;5049874;28;20191;-75
2022/09/25 01:55:07;;;;;;;5.70;4.97;;;;;;;13.04;57.79;94960.88;5049700;28;20195;-77
2022/09/25 01:57:40;;;;;;;8.63;5.37;;;;;;;12.96;57.77;94945.38;5049948;28;20294;-76
2022/09/25 02:00:14;;;;;;;10.37;5.07;;;;;;;12.98;57.97;94948.59;5049480;28;20598;-75
2022/09/25 02:02:47;;;;;;;5.90;4.50;;;;;;;13.00;57.83;94951.84;5064138;28;20218;-74
2022/09/25 02:05:19;;;;;;;5.73;4.83;;;;;;;12.98;58.05;94949.41;5112391;28;20181;-72
2022/09/25 02:07:50;;;;;;;5.97;4.37;;;;;;;12.92;58.00;94936.38;5112815;28;20233;-76
2022/09/25 02:10:21;;;;;;;6.37;5.13;;;;;;;12.96;57.98;94938.50;5112706;28;20199;-75
2022/09/25 02:12:55;;;;;;;6.53;5.10;;;;;;;12.94;58.20;94935.25;5112688;28;20186;-74
2022/09/25 02:15:28;;;;;;;6.10;4.57;;;;;;;12.89;58.16;94934.88;5112151;28;20539;-75
2022/09/25 02:20:49;;;;;;;5.87;5.00;;;;;;;12.90;58.29;94944.19;5111976;28;20200;-74
2022/09/25 02:23:22;;;;;;;6.63;4.97;;;;;;;12.89;58.33;94955.41;5112300;28;20188;-78
2022/09/25 02:25:55;;;;;;;8.80;4.80;;;;;;;12.87;58.27;94952.19;5112407;28;20189;-78
2022/09/25 02:28:22;;;;;;;5.63;4.73;;;;;;;12.86;58.32;94953.13;5112381;28;20221;-76
2022/09/25 02:30:53;;;;;;;6.37;5.23;;;;;;;12.85;58.42;94959.22;5112382;28;20204;-76
2022/09/25 02:33:20;;;;;;;7.07;4.70;;;;;;;12.84;58.68;94960.19;5112262;28;20286;-77
2022/09/25 02:35:47;;;;;;;5.87;5.13;;;;;;;12.81;58.55;94952.75;5112380;28;20181;-77
2022/09/25 02:38:15;;;;;;;6.77;4.50;;;;;;;12.83;58.67;94952.63;5111935;28;20200;-83
2022/09/25 02:40:48;;;;;;;6.17;4.23;;;;;;;12.80;58.58;94949.41;5112413;28;20184;-78
2022/09/25 02:43:28;;;;;;;5.60;4.73;;;;;;;12.81;58.45;94942.50;5112086;28;20537;-77
2022/09/25 02:46:08;;;;;;;4.90;4.40;;;;;;;12.81;58.76;94945.06;5115649;28;20305;-78
2022/09/25 02:48:49;;;;;;;6.20;5.00;;;;;;;12.75;58.50;94949.03;5118027;28;20220;-75
2022/09/25 02:51:25;;;;;;;7.10;4.90;;;;;;;12.79;58.67;94945.22;5119042;28;20184;-78
2022/09/25 02:53:58;;;;;;;6.57;4.43;;;;;;;12.80;58.64;94951.16;5118784;28;20204;-80
2022/09/25 02:56:32;;;;;;;6.67;5.07;;;;;;;12.78;58.59;94945.38;5117536;28;20195;-76
2022/09/25 02:59:05;;;;;;;5.63;4.47;;;;;;;12.66;58.65;94926.81;5112371;28;20188;-79
2022/09/25 03:01:37;;;;;;;11.77;4.80;;;;;;;12.78;58.65;94946.19;5112382;28;20226;-77
2022/09/25 03:04:06;;;;;;;6.53;5.17;;;;;;;12.79;58.81;94944.41;5113027;28;20216;-75
2022/09/25 03:06:33;;;;;;;8.33;5.23;;;;;;;12.78;58.73;94947.94;5115106;28;20292;-79
2022/09/25 03:09:01;;;;;;;5.50;4.50;;;;;;;12.77;58.70;94947.09;5115333;28;20232;-81
2022/09/25 03:11:28;;;;;;;5.83;4.63;;;;;;;12.78;58.65;94951.31;5111672;28;20246;-74
2022/09/25 03:13:57;;;;;;;5.97;4.57;;;;;;;12.79;58.88;94947.78;5111013;28;20189;-74
2022/09/25 03:16:32;;;;;;;5.10;4.50;;;;;;;12.78;58.80;94946.19;5111387;28;20722;-75
2022/09/25 03:19:00;;;;;;;4.90;4.40;;;;;;;12.78;58.58;94945.38;5111271;28;20196;-74
2022/09/25 03:21:27;;;;;;;5.27;4.77;;;;;;;12.79;58.91;94941.84;5111448;28;20547;-74
2022/09/25 03:23:56;;;;;;;6.83;4.73;;;;;;;12.79;58.86;94942.66;5111319;28;20181;-77
2022/09/25 03:26:23;;;;;;;7.00;4.23;;;;;;;12.80;58.86;94944.25;5111392;28;20185;-84
2022/09/25 03:28:50;;;;;;;7.57;4.50;;;;;;;12.60;58.87;94903.47;5111622;28;20209;-83
2022/09/25 03:31:17;;;;;;;10.77;5.37;;;;;;;12.81;59.06;94940.72;5110943;28;20193;-74
2022/09/25 03:33:44;;;;;;;6.10;4.27;;;;;;;12.75;58.99;94930.25;5110487;28;20181;-75
2022/09/25 03:36:15;;;;;;;5.23;4.73;;;;;;;12.70;59.06;94917.06;5110881;28;20296;-75
2022/09/25 03:38:42;;;;;;;6.53;4.97;;;;;;;12.68;59.18;94921.50;5110855;28;20276;-74
2022/09/25 03:41:11;;;;;;;5.83;4.80;;;;;;;12.80;59.12;94939.13;5110729;28;20185;-75
2022/09/25 03:43:39;;;;;;;5.93;5.33;;;;;;;12.71;59.23;94921.22;5110927;28;20189;-75
2022/09/25 03:46:08;;;;;;;6.27;4.57;;;;;;;12.79;59.34;94941.84;5111187;28;20181;-74
2022/09/25 03:48:35;;;;;;;5.47;4.77;;;;;;;12.68;59.25;94927.44;5111163;28;20719;-75
2022/09/25 03:51:03;;;;;;;5.07;4.67;;;;;;;12.56;59.49;94913.22;5110863;28;20258;-75
2022/09/25 03:53:32;;;;;;;5.73;4.70;;;;;;;12.63;59.12;94926.28;5110666;28;20663;-78
2022/09/25 03:55:59;;;;;;;6.53;4.20;;;;;;;12.63;59.29;94926.28;5110583;28;20181;-73
2022/09/25 03:58:26;;;;;;;8.60;4.80;;;;;;;12.70;59.49;94942.72;5110553;28;20199;-75
2022/09/25 04:00:56;;;;;;;5.13;4.33;;;;;;;12.70;59.04;94948.66;5110820;28;20184;-75
2022/09/25 04:03:23;;;;;;;4.97;4.47;;;;;;;12.67;59.42;94948.13;5110790;28;20242;-75
2022/09/25 04:05:50;;;;;;;8.80;4.87;;;;;;;12.67;59.36;94946.38;5110218;28;20200;-74
2022/09/25 04:08:17;;;;;;;5.77;4.60;;;;;;;12.64;59.38;94951.78;5092223;28;20228;-75
2022/09/25 04:10:45;;;;;;;6.60;4.47;;;;;;;11.98;59.51;94850.22;5110203;28;20185;-75
2022/09/25 04:13:12;;;;;;;5.97;5.37;;;;;;;12.63;59.19;94957.88;5110276;28;20188;-73
2022/09/25 04:15:39;;;;;;;5.67;4.60;;;;;;;11.15;59.30;94723.84;5109974;28;20185;-75
2022/09/25 04:18:06;;;;;;;6.97;5.50;;;;;;;12.59;59.43;94945.47;5110280;28;20571;-75
2022/09/25 04:20:33;;;;;;;6.07;4.60;;;;;;;12.50;59.57;94934.31;5109998;28;20284;-74
2022/09/25 04:23:00;;;;;;;6.13;4.47;;;;;;;12.61;59.51;94964.09;5110191;28;20678;-73
2022/09/25 04:25:27;;;;;;;5.30;4.23;;;;;;;12.60;59.37;94962.47;5110008;28;20253;-73
2022/09/25 04:27:57;;;;;;;6.83;4.37;;;;;;;12.61;59.51;94966.66;5110116;28;20576;-75
2022/09/25 04:30:24;;;;;;;8.23;4.90;;;;;;;12.54;59.55;94954.41;5110122;28;20215;-76
2022/09/25 04:35:36;;;;;;;6.13;5.30;;;;;;;12.65;59.33;94957.72;5110150;28;20687;-75
2022/09/25 04:38:04;;;;;;;5.50;4.77;;;;;;;12.69;59.42;94966.75;5092241;28;20193;-75
2022/09/25 04:40:31;;;;;;;5.10;4.60;;;;;;;12.71;59.42;94960.53;5109693;28;20185;-75
2022/09/25 04:43:01;;;;;;;5.83;5.00;;;;;;;12.68;59.49;94950.53;5109738;28;20641;-74
2022/09/25 04:45:30;;;;;;;8.00;5.13;;;;;;;12.77;59.34;94962.50;5109845;28;20568;-74
2022/09/25 04:48:00;;;;;;;6.37;4.73;;;;;;;12.73;59.33;94950.91;5110261;28;20185;-74
2022/09/25 04:50:26;;;;;;;5.27;4.77;;;;;;;12.80;59.40;94959.66;5109457;28;20224;-75
2022/09/25 04:52:53;;;;;;;5.10;4.60;;;;;;;12.89;59.09;94965.69;5110025;28;20193;-75
2022/09/25 04:55:23;;;;;;;5.80;3.87;;;;;;;12.90;58.98;94951.88;5110399;28;20645;-78
2022/09/25 04:57:51;;;;;;;7.43;4.83;;;;;;;12.74;59.09;94915.81;5110834;28;20618;-82
2022/09/25 05:00:21;;;;;;;6.90;5.37;;;;;;;13.08;59.04;94962.16;5110267;28;20245;-77
2022/09/25 05:02:48;;;;;;;5.43;4.80;;;;;;;13.32;58.88;94969.31;5110726;28;20193;-79
2022/09/25 05:05:16;;;;;;;8.00;5.13;;;;;;;13.61;58.59;94965.72;5110586;28;20192;-77
2022/09/25 05:07:51;;;;;;;5.67;4.60;;;;;;;14.00;58.94;94972.06;5110526;28;20228;-80
2022/09/25 05:10:19;;;;;;;6.60;4.57;;;;;;;14.46;58.90;94964.09;5110976;28;20227;-79
2022/09/25 05:12:47;;;;;;;7.83;5.20;;;;;;;15.01;58.67;94955.94;5110566;28;20212;-81
2022/09/25 05:15:14;;;;;;;5.13;4.60;;;;;;;15.59;58.33;94946.47;5110253;28;20200;-80
2022/09/25 05:17:43;;;;;;;5.63;4.53;;;;;;;16.17;57.71;94933.34;5109924;28;20199;-82
2022/09/25 05:20:10;;;;;;;5.03;4.50;;;;;;;17.12;56.98;94951.31;5111897;28;20516;-83
2022/09/25 05:22:37;;;;;;;5.37;4.17;;;;;;;17.80;55.94;94922.06;5110326;28;20212;-75
2022/09/25 05:25:04;;;;;;;4.17;3.77;;;;;;;18.75;54.36;94943.84;5109865;28;20280;-75
2022/09/25 05:27:34;;;;;;;5.63;3.93;;;;;;;19.61;53.25;94944.75;5109479;28;20231;-75
2022/09/25 05:30:03;;;;;;;5.30;4.10;;;;;;;20.50;51.64;94952.72;5109749;28;20312;-76
2022/09/25 05:32:30;;;;;;;8.27;4.97;;;;;;;21.38;50.36;94954.66;5109555;28;20189;-75
2022/09/25 05:34:58;;;;;;;5.67;4.97;;;;;;;22.27;48.83;94936.03;5109590;28;20710;-74
2022/09/25 05:37:25;;;;;;;4.97;3.97;;;;;;;23.12;47.44;94949.78;5109289;28;20189;-74
2022/09/25 05:39:52;;;;;;;7.53;4.63;;;;;;;23.91;46.27;94958.91;5109486;28;20193;-74
2022/09/25 05:42:19;;;;;;;5.97;4.47;;;;;;;24.49;44.79;94942.13;5109535;28;20185;-77
2022/09/25 05:44:46;;;;;;;6.63;4.57;;;;;;;25.20;43.81;94965.00;5109446;28;20200;-77
2022/09/25 05:47:13;;;;;;;7.18;4.57;;;;;;;25.82;42.15;94967.41;5109277;28;20189;-75
2022/09/25 05:49:39;;;;;;;5.32;4.38;;;;;;;26.49;41.13;94967.88;5109906;28;20216;-76
2022/09/25 05:52:08;;;;;;;7.78;4.20;;;;;;;27.20;40.59;94973.78;5109934;28;20620;-76
2022/09/25 05:54:34;;;;;;;6.18;4.50;;;;;;;27.90;39.63;94972.66;5109406;28;20181;-76
2022/09/25 05:57:01;;;;;;;12.13;5.47;;;;;;;28.57;38.46;94976.25;5113237;28;20189;-75
2022/09/25 05:59:28;;;;;;;7.55;5.05;;;;;;;29.18;37.77;94975.19;5113475;28;20199;-76
2022/09/25 06:01:55;;;;;;;6.13;4.53;;;;;;;29.73;36.73;94976.81;5113298;28;20737;-77
2022/09/25 06:04:22;;;;;;;7.53;4.97;;;;;;;30.28;35.63;94971.47;5113071;28;20196;-77
2022/09/25 06:06:49;;;;;;;8.07;4.93;;;;;;;30.81;35.37;94972.28;5113134;28;20196;-75
2022/09/25 06:09:17;;;;;;;7.78;4.72;;;;;;;31.33;34.53;94961.66;5113095;28;20593;-75
2022/09/25 06:11:46;;;;;;;6.07;5.07;;;;;;;31.85;33.87;94968.63;5113100;28;20185;-77
2022/09/25 06:14:13;;;;;;;6.45;5.32;;;;;;;32.33;33.13;94939.19;5113296;28;20189;-78
2022/09/25 06:16:40;;;;;;;7.55;5.30;;;;;;;33.01;32.78;94963.41;5113085;28;20576;-76
2022/09/25 06:19:07;;;;;;;5.63;4.82;;;;;;;33.58;32.13;94964.69;5113258;28;20589;-76
2022/09/25 06:21:34;;;;;;;7.43;4.80;;;;;;;34.11;31.45;94972.81;5122913;28;20197;-79
2022/09/25 06:24:01;;;;;;;6.13;4.75;;;;;;;34.64;30.78;94980.81;5129466;28;20188;-75
2022/09/25 06:26:30;;;;;;;5.40;4.53;;;;;;;35.14;30.29;94980.53;5122346;28;20191;-80
2022/09/25 06:28:59;;;;;;;4.90;4.43;;;;;;;35.56;29.53;94968.28;5095896;28;20698;-78
2022/09/25 06:31:26;;;;;;;5.53;4.47;;;;;;;36.05;29.26;94983.78;5115086;28;20185;-77
2022/09/25 06:33:53;;;;;;;5.05;4.53;;;;;;;36.43;28.71;94979.13;5118399;28;20262;-81
2022/09/25 06:36:20;;;;;;;5.35;4.43;;;;;;;36.75;28.59;94977.53;5112828;28;20193;-81
2022/09/25 06:38:48;;;;;;;5.53;4.30;;;;;;;37.05;28.22;94978.00;5112848;28;20186;-76
2022/09/25 06:41:14;;;;;;;5.32;3.88;;;;;;;37.26;27.68;94981.81;5113119;28;20181;-80
2022/09/25 06:43:43;;;;;;;4.90;4.50;;;;;;;37.49;27.44;94987.25;5112549;28;20629;-77
2022/09/25 06:46:10;;;;;;;9.00;4.22;;;;;;;37.64;27.32;94978.91;5112330;28;20230;-80
2022/09/25 06:48:36;;;;;;;6.03;4.13;;;;;;;37.82;27.13;94975.25;5112533;28;20211;-82
2022/09/25 06:51:03;;;;;;;6.60;3.97;;;;;;;38.00;26.87;94986.09;5112443;28;20239;-75
2022/09/25 06:53:30;;;;;;;4.18;3.78;;;;;;;38.16;26.80;94987.31;5112146;28;20640;-79
2022/09/25 06:55:58;;;;;;;4.30;3.47;;;;;;;38.37;26.42;94976.91;5112083;28;20204;-77
2022/09/25 06:58:25;;;;;;;4.65;3.63;;;;;;;38.62;25.94;94984.28;5112349;28;20177;-78
2022/09/25 07:00:55;;;;;;;4.30;3.90;;;;;;;38.65;25.77;94980.19;5116256;28;20250;-76
2022/09/25 07:06:09;;;;;;;3.65;3.30;;;;;;;38.56;26.03;94998.06;5114177;28;20265;-75
2022/09/25 07:08:36;;;;;;;5.18;3.65;;;;;;;38.62;25.44;95002.19;5113560;28;20260;-79
2022/09/25 07:11:04;;;;;;;3.65;3.35;;;;;;;38.68;25.51;95008.97;5111954;28;20209;-76
2022/09/25 07:13:34;;;;;;;6.63;3.22;;;;;;;38.81;25.34;95016.13;5112060;28;20185;-74
2022/09/25 07:16:05;;;;;;;3.92;3.53;;;;;;;38.97;25.19;95008.50;5111577;28;20243;-74
2022/09/25 07:18:32;;;;;;;3.72;3.42;;;;;;;39.18;25.12;95018.63;5111842;28;20195;-74
2022/09/25 07:21:02;;;;;;;3.72;3.40;;;;;;;39.31;24.95;95020.41;5111296;28;20204;-74
2022/09/25 07:23:30;;;;;;;5.45;3.13;;;;;;;39.46;24.91;95029.88;5093056;28;20682;-75
2022/09/25 07:25:58;;;;;;;6.63;3.88;;;;;;;39.57;24.73;95017.78;5110931;28;20683;-74
2022/09/25 07:28:24;;;;;;;3.88;3.17;;;;;;;39.66;24.70;95013.25;5111391;28;20182;-77
2022/09/25 07:30:51;;;;;;;3.63;3.17;;;;;;;39.75;24.65;95024.75;5111329;28;20323;-74
2022/09/25 07:33:23;;;;;;;3.42;3.10;;;;;;;39.78;24.44;95020.66;5111510;28;20185;-74
2022/09/25 07:35:51;;;;;;;3.70;3.33;;;;;;;39.76;24.24;95004.88;5111525;28;20205;-75
2022/09/25 07:38:18;;;;;;;4.13;3.50;;;;;;;39.79;24.23;95000.78;5111617;28;20216;-76
2022/09/25 07:40:45;;;;;;;4.18;3.53;;;;;;;39.78;23.95;94991.97;5111306;28;20238;-77
2022/09/25 07:43:11;;;;;;;5.03;3.38;;;;;;;39.78;24.16;94977.81;5111187;28;20188;-75
2022/09/25 07:45:38;;;;;;;3.88;3.50;;;;;;;39.72;24.14;94981.72;5111289;28;20196;-76
2022/09/25 07:48:06;;;;;;;5.25;3.65;;;;;;;39.64;24.33;94978.72;5111338;28;20588;-77
2022/09/25 07:50:34;;;;;;;4.38;3.97;;;;;;;39.52;24.35;94967.84;5110911;28;20768;-76
2022/09/25 07:53:01;;;;;;;4.45;3.70;;;;;;;39.44;24.26;94973.19;5110775;28;20189;-76
2022/09/25 07:55:28;;;;;;;5.55;3.67;;;;;;;39.31;24.18;94961.53;5111326;28;20184;-77
2022/09/25 07:57:57;;;;;;;5.18;3.90;;;;;;;39.03;24.43;94945.72;5110995;28;20181;-79
2022/09/25 08:00:24;;;;;;;4.72;3.85;;;;;;;39.00;24.41;94964.28;5110880;28;20211;-74
2022/09/25 08:02:58;;;;;;;3.70;3.40;;;;;;;38.81;24.31;94957.31;5110827;28;20212;-75
2022/09/25 08:05:25;;;;;;;4.90;4.28;;;;;;;38.70;24.36;94966.69;5110431;28;20196;-82
2022/09/25 08:07:54;;;;;;;5.07;4.28;;;;;;;38.53;24.37;94972.75;5111515;28;20228;-78
2022/09/25 08:10:21;;;;;;;5.90;4.50;;;;;;;38.45;24.50;94970.03;5111910;28;20216;-77
2022/09/25 08:12:48;;;;;;;7.60;4.07;;;;;;;38.24;24.40;94951.81;5112988;28;20188;-78
2022/09/25 08:15:16;;;;;;;5.65;4.63;;;;;;;38.06;24.76;94944.81;5111455;28;20660;-76
2022/09/25 08:17:42;;;;;;;6.53;4.00;;;;;;;38.03;24.56;94961.44;5109743;28;20197;-76
2022/09/25 08:20:11;;;;;;;5.10;4.20;;;;;;;37.88;24.81;94957.28;5111067;28;20193;-77
2022/09/25 08:22:38;;;;;;;4.30;3.92;;;;;;;37.74;24.70;94956.50;5110809;28;20212;-77
2022/09/25 08:25:07;;;;;;;7.50;3.97;;;;;;;37.58;25.03;94950.75;5110272;28;20721;-78
2022/09/25 08:27:38;;;;;;;5.30;3.75;;;;;;;37.40;25.01;94941.81;5110423;28;20192;-76
2022/09/25 08:30:07;;;;;;;4.78;4.00;;;;;;;37.22;25.20;94926.69;5110320;28;20220;-76
2022/09/25 08:32:35;;;;;;;6.88;3.83;;;;;;;37.04;25.23;94929.22;5111116;28;20189;-78
2022/09/25 08:35:02;;;;;;;5.95;3.78;;;;;;;36.84;25.19;94926.97;5111490;28;20192;-76
2022/09/25 08:37:30;;;;;;;4.40;4.00;;;;;;;36.53;25.30;94902.78;5110608;28;20199;-76
2022/09/25 08:39:58;;;;;;;4.18;3.72;;;;;;;36.52;25.28;94922.53;5110528;28;20292;-80
2022/09/25 08:42:33;;;;;;;4.55;3.58;;;;;;;36.31;25.45;94930.84;5110676;28;20193;-80
2022/09/25 08:50:34;;;;;;;4.22;3.67;;;;;;;35.64;25.54;94933.03;5008677;28;20286;-80
2022/09/25 08:53:06;;;;;;;4.75;4.00;;;;;;;35.32;25.63;94915.13;5007853;28;20248;-77
2022/09/25 08:58:25;;;;;;;3.40;3.10;;;;;;;34.99;25.37;94933.66;5007331;28;20207;-75
2022/09/25 09:00:54;;;;;;;4.38;3.03;;;;;;;34.64;25.39;94906.44;5007379;28;20185;-81
2022/09/25 09:03:24;;;;;;;3.85;3.28;;;;;;;34.55;25.52;94923.28;5007415;28;20264;-79
2022/09/25 09:05:56;;;;;;;3.72;3.42;;;;;;;34.33;25.70;94923.75;5007279;28;20283;-74
2022/09/25 09:08:28;;;;;;;4.85;3.38;;;;;;;34.08;25.61;94909.66;5006717;28;20224;-76
2022/09/25 09:10:59;;;;;;;5.10;3.50;;;;;;;33.87;25.70;94913.53;5007100;28;20216;-76
2022/09/25 09:13:34;;;;;;;4.03;3.63;;;;;;;33.51;25.71;94887.31;5006999;28;20196;-77
2022/09/25 09:16:05;;;;;;;4.03;3.42;;;;;;;33.42;26.05;94900.34;5007564;28;20201;-74
2022/09/25 09:18:38;;;;;;;4.05;3.65;;;;;;;33.20;26.14;94905.25;5007066;28;20620;-77
2022/09/25 09:21:14;;;;;;;6.75;4.03;;;;;;;32.95;26.01;94895.59;5007347;28;20579;-75
2022/09/25 09:23:52;;;;;;;4.13;3.70;;;;;;;32.68;26.23;94886.13;5006744;28;20207;-74
2022/09/25 09:26:25;;;;;;;4.32;3.42;;;;;;;32.45;26.51;94889.44;5109771;28;20191;-75
2022/09/25 09:29:10;;;;;;;6.07;3.88;;;;;;;32.21;26.85;94891.84;5109663;28;20283;-77
2022/09/25 09:31:48;;;;;;;4.72;3.55;;;;;;;31.91;26.68;94887.41;5112522;28;20224;-75
2022/09/25 09:34:43;;;;;;;4.28;3.88;;;;;;;31.57;26.75;94885.28;5113529;28;20242;-74
2022/09/25 09:37:18;;;;;;;3.83;3.42;;;;;;;31.28;27.06;94884.19;5113165;28;20208;-75
2022/09/25 09:39:56;;;;;;;6.22;3.83;;;;;;;31.06;26.92;94872.00;5113283;28;20223;-75
2022/09/25 09:42:32;;;;;;;4.38;3.42;;;;;;;30.83;27.15;94861.91;5113329;28;20185;-75
2022/09/25 09:45:08;;;;;;;3.88;3.22;;;;;;;30.90;27.17;94865.09;5113332;28;20220;-80
2022/09/25 09:47:42;;;;;;;3.75;3.40;;;;;;;30.81;27.35;94854.25;5113845;28;20252;-75
2022/09/25 09:50:27;;;;;;;4.20;3.78;;;;;;;30.85;27.58;94862.44;5113468;28;20209;-83
2022/09/25 09:53:01;;;;;;;4.10;3.58;;;;;;;30.72;27.69;94853.97;5113641;28;20297;-79
2022/09/25 09:55:37;;;;;;;3.90;3.50;;;;;;;30.56;27.80;94860.19;5113580;28;20211;-83
2022/09/25 09:58:10;;;;;;;8.00;4.03;;;;;;;30.37;27.46;94862.50;5113635;28;20581;-76
2022/09/25 10:00:40;;;;;;;3.63;3.33;;;;;;;30.32;27.97;94859.06;5112412;28;20208;-75
2022/09/25 10:03:14;;;;;;;5.03;3.40;;;;;;;30.14;27.83;94842.63;5113607;28;20185;-75
2022/09/25 10:05:46;;;;;;;3.60;3.30;;;;;;;30.15;27.79;94846.06;5113049;28;20568;-75
2022/09/25 10:08:13;;;;;;;5.30;3.50;;;;;;;30.01;28.29;94850.97;5112946;28;20607;-75
2022/09/25 10:10:43;;;;;;;5.13;3.20;;;;;;;29.77;28.07;94831.31;5112471;28;20221;-74
2022/09/25 10:13:17;;;;;;;4.95;3.33;;;;;;;29.65;28.43;94853.38;5113452;28;20622;-75
2022/09/25 10:15:51;;;;;;;4.13;3.28;;;;;;;29.42;28.56;94857.13;5112675;28;20192;-74
2022/09/25 10:18:20;;;;;;;4.60;3.50;;;;;;;29.19;28.70;94846.94;5112524;28;20542;-76
2022/09/25 10:20:54;;;;;;;3.50;3.20;;;;;;;29.00;28.83;94838.56;5113020;28;20196;-74
2022/09/25 10:23:33;;;;;;;3.15;2.92;;;;;;;28.88;29.00;94837.91;5112539;28;20193;-75
2022/09/25 10:26:00;;;;;;;4.15;2.88;;;;;;;28.82;28.96;94838.91;5112656;28;20199;-75
2022/09/25 10:28:29;;;;;;;4.57;3.47;;;;;;;28.77;29.09;94838.84;5112629;28;20664;-76
2022/09/25 10:30:58;;;;;;;4.65;3.28;;;;;;;28.69;29.09;94826.91;5112750;28;20231;-77
2022/09/25 10:33:27;;;;;;;4.60;2.80;;;;;;;28.61;29.24;94819.47;5112504;28;20242;-75
2022/09/25 10:35:55;;;;;;;4.80;3.20;;;;;;;28.53;29.04;94820.69;5112643;28;20209;-76
2022/09/25 10:38:36;;;;;;;3.65;3.35;;;;;;;28.24;29.28;94793.78;5113041;28;20197;-76
2022/09/25 10:41:07;;;;;;;4.28;3.42;;;;;;;28.27;29.33;94811.69;5111669;28;20197;-75
2022/09/25 10:43:34;;;;;;;4.18;3.35;;;;;;;28.03;29.42;94778.78;5112057;28;20670;-77
2022/09/25 10:46:09;;;;;;;4.55;3.35;;;;;;;28.08;29.13;94803.31;5112623;28;20532;-82
2022/09/25 10:51:22;;;;;;;3.50;3.20;;;;;;;27.95;29.83;94804.47;5114035;28;20218;-79
2022/09/25 10:53:50;;;;;;;4.13;3.42;;;;;;;27.89;29.71;94804.63;5113218;28;20196;-80
2022/09/25 10:56:26;;;;;;;4.45;3.17;;;;;;;27.73;29.91;94790.50;5113302;28;20299;-75
2022/09/25 10:58:55;;;;;;;5.35;3.47;;;;;;;27.73;29.98;94803.63;5111818;28;20188;-76
2022/09/25 11:01:33;;;;;;;4.10;3.47;;;;;;;27.53;29.63;94785.72;5112420;28;20659;-77
2022/09/25 11:04:00;;;;;;;4.00;3.28;;;;;;;27.59;29.93;94791.81;5112027;28;20315;-77
2022/09/25 11:06:29;;;;;;;5.28;3.42;;;;;;;27.52;29.91;94789.38;5112222;28;20250;-76
2022/09/25 11:09:09;;;;;;;4.05;2.75;;;;;;;27.25;30.28;94753.28;5112553;28;20208;-75
2022/09/25 11:11:38;;;;;;;3.85;3.30;;;;;;;27.40;30.13;94786.84;5113145;28;20220;-76
2022/09/25 11:14:08;;;;;;;5.00;3.50;;;;;;;27.34;30.27;94779.94;5112880;28;20268;-75
2022/09/25 11:16:48;;;;;;;6.10;3.55;;;;;;;27.22;30.43;94768.72;5112125;28;20279;-76
2022/09/25 11:19:19;;;;;;;4.50;3.33;;;;;;;27.21;30.31;94777.63;5112045;28;20201;-75
2022/09/25 11:21:56;;;;;;;3.45;3.15;;;;;;;27.17;30.59;94773.88;5112720;28;20192;-78
2022/09/25 11:24:30;;;;;;;5.50;3.45;;;;;;;27.11;30.11;94774.84;5113000;28;20219;-75
2022/09/25 11:27:04;;;;;;;4.07;3.17;;;;;;;27.05;30.36;94773.13;5112789;28;20648;-74
2022/09/25 11:29:41;;;;;;;5.28;2.85;;;;;;;26.99;30.58;94775.69;5119390;28;20197;-75
2022/09/25 11:32:22;;;;;;;3.58;2.78;;;;;;;26.94;30.74;94774.78;5119318;28;20685;-74
2022/09/25 11:35:04;;;;;;;3.38;3.13;;;;;;;26.77;30.51;94748.56;5113807;28;20617;-75
2022/09/25 11:37:37;;;;;;;3.90;3.50;;;;;;;26.82;30.79;94766.22;5111803;28;20189;-76
2022/09/25 11:43:06;;;;;;;3.40;3.08;;;;;;;26.66;30.87;94739.69;5111659;28;20245;-76
2022/09/25 11:45:41;;;;;;;3.35;3.05;;;;;;;26.60;30.59;94745.91;5111995;28;20181;-75
2022/09/25 11:48:18;;;;;;;6.10;3.03;;;;;;;26.58;30.76;94736.66;5111329;28;20189;-75
2022/09/25 11:50:54;;;;;;;2.83;2.63;;;;;;;26.49;31.22;94726.56;5110676;28;20259;-74
2022/09/25 11:53:32;;;;;;;5.18;2.83;;;;;;;26.45;31.00;94722.00;5110400;28;20200;-75
2022/09/25 11:56:18;;;;;;;5.53;2.90;;;;;;;26.44;31.19;94725.69;5111057;28;20188;-75
2022/09/25 11:58:57;;;;;;;3.95;2.80;;;;;;;26.40;30.83;94722.69;5110744;28;20193;-75
2022/09/25 12:01:32;;;;;;;3.50;3.05;;;;;;;26.38;30.80;94721.31;5111275;28;20559;-75
2022/09/25 12:07:27;;;;;;;3.60;2.80;;;;;;;26.25;31.07;94704.88;5129216;27;20556;-77
2022/09/25 12:10:07;;;;;;;3.53;2.70;;;;;;;26.27;30.99;94715.13;5127703;28;20620;-79
2022/09/25 12:12:40;;;;;;;5.32;2.95;;;;;;;26.24;31.15;94711.13;5127744;28;20185;-77
2022/09/25 12:15:20;;;;;;;3.20;2.90;;;;;;;26.16;31.15;94701.00;5130364;28;20312;-77
2022/09/25 12:17:57;;;;;;;3.92;2.90;;;;;;;26.17;31.30;94705.25;5127369;28;20191;-79